sensor_id;sensor_type;location;lat;lon;timestamp;P1;durP1;ratioP1;P2;durP2;ratioP2
33327;SDS011;19692;52.998;9.116;2022-08-03T00:01:37;12.83;;;8.90;;
33327;SDS011;19692;52.998;9.116;2022-08-03T00:04:05;13.83;;;8.77;;
33327;SDS011;19692;52.998;9.116;2022-08-03T00:06:32;11.93;;;9.50;;
33327;SDS011;19692;52.998;9.116;2022-08-03T00:08:58;11.50;;;8.73;;
33327;SDS011;19692;52.998;9.116;2022-08-03T00:11:24;10.57;;;9.47;;
33327;SDS011;19692;52.998;9.116;2022-08-03T00:13:50;10.43;;;9.37;;
33327;SDS011;19692;52.998;9.116;2022-08-03T00:16:16;10.30;;;9.07;;
33327;SDS011;19692;52.998;9.116;2022-08-03T00:18:41;10.40;;;9.30;;
33327;SDS011;19692;52.998;9.116;2022-08-03T00:21:07;10.33;;;9.20;;
33327;SDS011;19692;52.998;9.116;2022-08-03T00:23:33;11.77;;;9.70;;
33327;SDS011;19692;52.998;9.116;2022-08-03T00:25:59;11.00;;;9.97;;
33327;SDS011;19692;52.998;9.116;2022-08-03T00:28:25;10.37;;;9.37;;
33327;SDS011;19692;52.998;9.116;2022-08-03T00:30:51;13.63;;;10.10;;
33327;SDS011;19692;52.998;9.116;2022-08-03T00:33:17;12.57;;;10.00;;
33327;SDS011;19692;52.998;9.116;2022-08-03T00:35:43;11.93;;;9.97;;
33327;SDS011;19692;52.998;9.116;2022-08-03T00:38:09;10.47;;;9.43;;
33327;SDS011;19692;52.998;9.116;2022-08-03T00:40:35;10.87;;;9.83;;
33327;SDS011;19692;52.998;9.116;2022-08-03T00:43:02;11.93;;;10.83;;
33327;SDS011;19692;52.998;9.116;2022-08-03T00:45:31;11.57;;;10.43;;
33327;SDS011;19692;52.998;9.116;2022-08-03T00:48:02;11.93;;;10.83;;
33327;SDS011;19692;52.998;9.116;2022-08-03T00:50:30;11.20;;;10.30;;
33327;SDS011;19692;52.998;9.116;2022-08-03T00:52:59;12.87;;;11.63;;
33327;SDS011;19692;52.998;9.116;2022-08-03T00:55:27;11.90;;;10.17;;
33327;SDS011;19692;52.998;9.116;2022-08-03T00:57:53;14.50;;;10.73;;
33327;SDS011;19692;52.998;9.116;2022-08-03T01:00:20;12.83;;;11.53;;
33327;SDS011;19692;52.998;9.116;2022-08-03T01:02:48;12.97;;;11.10;;
33327;SDS011;19692;52.998;9.116;2022-08-03T01:05:14;11.30;;;10.30;;
33327;SDS011;19692;52.998;9.116;2022-08-03T01:10:34;13.37;;;12.20;;
33327;SDS011;19692;52.998;9.116;2022-08-03T01:19:04;12.83;;;11.83;;
33327;SDS011;19692;52.998;9.116;2022-08-03T01:27:37;13.40;;;12.20;;
33327;SDS011;19692;52.998;9.116;2022-08-03T01:30:34;13.00;;;11.83;;
33327;SDS011;19692;52.998;9.116;2022-08-03T01:33:03;14.43;;;11.63;;
33327;SDS011;19692;52.998;9.116;2022-08-03T01:35:40;14.03;;;12.27;;
33327;SDS011;19692;52.998;9.116;2022-08-03T01:38:32;13.40;;;12.27;;
33327;SDS011;19692;52.998;9.116;2022-08-03T01:41:28;13.87;;;12.47;;
33327;SDS011;19692;52.998;9.116;2022-08-03T01:44:01;13.43;;;12.30;;
33327;SDS011;19692;52.998;9.116;2022-08-03T01:46:32;13.30;;;12.03;;
33327;SDS011;19692;52.998;9.116;2022-08-03T01:48:58;13.47;;;12.17;;
33327;SDS011;19692;52.998;9.116;2022-08-03T01:51:25;13.07;;;11.97;;
33327;SDS011;19692;52.998;9.116;2022-08-03T01:53:52;13.70;;;12.17;;
33327;SDS011;19692;52.998;9.116;2022-08-03T01:56:21;14.07;;;12.77;;
33327;SDS011;19692;52.998;9.116;2022-08-03T01:58:48;13.23;;;11.90;;
33327;SDS011;19692;52.998;9.116;2022-08-03T02:01:16;12.47;;;11.47;;
33327;SDS011;19692;52.998;9.116;2022-08-03T02:03:44;13.40;;;12.10;;
33327;SDS011;19692;52.998;9.116;2022-08-03T02:06:11;13.33;;;11.90;;
33327;SDS011;19692;52.998;9.116;2022-08-03T02:08:39;12.50;;;11.50;;
33327;SDS011;19692;52.998;9.116;2022-08-03T02:11:07;12.63;;;11.47;;
33327;SDS011;19692;52.998;9.116;2022-08-03T02:13:33;13.83;;;12.43;;
33327;SDS011;19692;52.998;9.116;2022-08-03T02:16:00;15.47;;;12.40;;
33327;SDS011;19692;52.998;9.116;2022-08-03T02:18:27;13.00;;;11.90;;
33327;SDS011;19692;52.998;9.116;2022-08-03T02:20:56;13.23;;;12.00;;
33327;SDS011;19692;52.998;9.116;2022-08-03T02:23:26;13.77;;;12.47;;
33327;SDS011;19692;52.998;9.116;2022-08-03T02:25:54;12.67;;;11.30;;
33327;SDS011;19692;52.998;9.116;2022-08-03T02:28:28;13.07;;;11.67;;
33327;SDS011;19692;52.998;9.116;2022-08-03T02:30:59;13.03;;;11.87;;
33327;SDS011;19692;52.998;9.116;2022-08-03T02:33:36;12.90;;;11.70;;
33327;SDS011;19692;52.998;9.116;2022-08-03T02:36:07;14.33;;;13.10;;
33327;SDS011;19692;52.998;9.116;2022-08-03T02:38:36;13.47;;;12.20;;
33327;SDS011;19692;52.998;9.116;2022-08-03T02:41:06;14.23;;;12.87;;
33327;SDS011;19692;52.998;9.116;2022-08-03T02:43:39;13.40;;;12.30;;
33327;SDS011;19692;52.998;9.116;2022-08-03T02:46:07;14.10;;;13.07;;
33327;SDS011;19692;52.998;9.116;2022-08-03T02:48:37;14.80;;;13.37;;
33327;SDS011;19692;52.998;9.116;2022-08-03T02:51:05;15.77;;;13.97;;
33327;SDS011;19692;52.998;9.116;2022-08-03T02:53:31;14.63;;;13.33;;
33327;SDS011;19692;52.998;9.116;2022-08-03T02:55:58;14.83;;;13.57;;
33327;SDS011;19692;52.998;9.116;2022-08-03T02:58:26;14.47;;;13.20;;
33327;SDS011;19692;52.998;9.116;2022-08-03T03:00:55;15.10;;;13.73;;
33327;SDS011;19692;52.998;9.116;2022-08-03T03:03:21;15.00;;;13.57;;
33327;SDS011;19692;52.998;9.116;2022-08-03T03:05:48;16.00;;;14.43;;
33327;SDS011;19692;52.998;9.116;2022-08-03T03:08:15;14.57;;;13.00;;
33327;SDS011;19692;52.998;9.116;2022-08-03T03:10:43;15.53;;;13.93;;
33327;SDS011;19692;52.998;9.116;2022-08-03T03:13:09;15.30;;;14.07;;
33327;SDS011;19692;52.998;9.116;2022-08-03T03:15:37;15.30;;;14.00;;
33327;SDS011;19692;52.998;9.116;2022-08-03T03:18:05;15.30;;;13.80;;
33327;SDS011;19692;52.998;9.116;2022-08-03T03:20:33;14.70;;;13.33;;
33327;SDS011;19692;52.998;9.116;2022-08-03T03:23:02;14.37;;;13.07;;
33327;SDS011;19692;52.998;9.116;2022-08-03T03:25:30;13.90;;;12.70;;
33327;SDS011;19692;52.998;9.116;2022-08-03T03:27:58;14.53;;;13.33;;
33327;SDS011;19692;52.998;9.116;2022-08-03T03:30:25;13.77;;;12.67;;
33327;SDS011;19692;52.998;9.116;2022-08-03T03:32:51;14.13;;;12.83;;
33327;SDS011;19692;52.998;9.116;2022-08-03T03:35:17;13.97;;;12.80;;
33327;SDS011;19692;52.998;9.116;2022-08-03T03:37:43;14.80;;;13.43;;
33327;SDS011;19692;52.998;9.116;2022-08-03T03:40:09;14.67;;;13.37;;
33327;SDS011;19692;52.998;9.116;2022-08-03T03:42:35;14.07;;;12.83;;
33327;SDS011;19692;52.998;9.116;2022-08-03T03:45:05;14.50;;;13.20;;
33327;SDS011;19692;52.998;9.116;2022-08-03T03:47:35;15.10;;;13.63;;
33327;SDS011;19692;52.998;9.116;2022-08-03T03:50:01;15.10;;;13.80;;
33327;SDS011;19692;52.998;9.116;2022-08-03T03:52:31;14.70;;;13.43;;
33327;SDS011;19692;52.998;9.116;2022-08-03T03:54:57;16.20;;;14.60;;
33327;SDS011;19692;52.998;9.116;2022-08-03T03:57:23;14.37;;;13.17;;
33327;SDS011;19692;52.998;9.116;2022-08-03T03:59:50;15.20;;;13.73;;
33327;SDS011;19692;52.998;9.116;2022-08-03T04:02:15;16.43;;;15.13;;
33327;SDS011;19692;52.998;9.116;2022-08-03T04:04:41;15.27;;;13.93;;
33327;SDS011;19692;52.998;9.116;2022-08-03T04:07:26;16.77;;;15.40;;
33327;SDS011;19692;52.998;9.116;2022-08-03T04:10:21;14.40;;;13.00;;
33327;SDS011;19692;52.998;9.116;2022-08-03T04:13:10;15.07;;;13.60;;
33327;SDS011;19692;52.998;9.116;2022-08-03T04:15:38;15.30;;;13.80;;
33327;SDS011;19692;52.998;9.116;2022-08-03T04:18:05;14.43;;;13.13;;
33327;SDS011;19692;52.998;9.116;2022-08-03T04:20:36;14.77;;;13.30;;
33327;SDS011;19692;52.998;9.116;2022-08-03T04:23:03;14.37;;;12.87;;
33327;SDS011;19692;52.998;9.116;2022-08-03T04:25:32;14.57;;;13.23;;
33327;SDS011;19692;52.998;9.116;2022-08-03T04:27:59;14.53;;;13.40;;
33327;SDS011;19692;52.998;9.116;2022-08-03T04:30:26;14.73;;;13.43;;
33327;SDS011;19692;52.998;9.116;2022-08-03T04:32:56;15.67;;;14.27;;
33327;SDS011;19692;52.998;9.116;2022-08-03T04:35:23;14.03;;;12.73;;
33327;SDS011;19692;52.998;9.116;2022-08-03T04:37:53;16.93;;;15.43;;
33327;SDS011;19692;52.998;9.116;2022-08-03T04:40:22;13.90;;;12.60;;
33327;SDS011;19692;52.998;9.116;2022-08-03T04:42:52;15.10;;;13.70;;
33327;SDS011;19692;52.998;9.116;2022-08-03T04:45:19;13.77;;;12.57;;
33327;SDS011;19692;52.998;9.116;2022-08-03T04:47:46;13.77;;;12.60;;
33327;SDS011;19692;52.998;9.116;2022-08-03T04:50:13;13.13;;;11.90;;
33327;SDS011;19692;52.998;9.116;2022-08-03T04:52:40;13.87;;;12.57;;
33327;SDS011;19692;52.998;9.116;2022-08-03T04:55:06;13.53;;;12.43;;
33327;SDS011;19692;52.998;9.116;2022-08-03T04:57:32;13.77;;;12.47;;
33327;SDS011;19692;52.998;9.116;2022-08-03T04:59:58;13.60;;;12.47;;
33327;SDS011;19692;52.998;9.116;2022-08-03T05:02:23;13.47;;;12.27;;
33327;SDS011;19692;52.998;9.116;2022-08-03T05:04:49;13.73;;;12.33;;
33327;SDS011;19692;52.998;9.116;2022-08-03T05:07:15;13.30;;;12.13;;
33327;SDS011;19692;52.998;9.116;2022-08-03T05:09:42;14.50;;;13.10;;
33327;SDS011;19692;52.998;9.116;2022-08-03T05:12:09;14.27;;;13.07;;
33327;SDS011;19692;52.998;9.116;2022-08-03T05:14:35;13.43;;;12.23;;
33327;SDS011;19692;52.998;9.116;2022-08-03T05:17:03;14.33;;;13.10;;
33327;SDS011;19692;52.998;9.116;2022-08-03T05:19:33;13.40;;;12.20;;
33327;SDS011;19692;52.998;9.116;2022-08-03T05:21:59;13.80;;;12.53;;
33327;SDS011;19692;52.998;9.116;2022-08-03T05:24:25;14.13;;;12.60;;
33327;SDS011;19692;52.998;9.116;2022-08-03T05:26:51;13.17;;;11.87;;
33327;SDS011;19692;52.998;9.116;2022-08-03T05:29:17;12.90;;;11.90;;
33327;SDS011;19692;52.998;9.116;2022-08-03T05:31:43;14.10;;;12.90;;
33327;SDS011;19692;52.998;9.116;2022-08-03T05:34:08;14.07;;;12.97;;
33327;SDS011;19692;52.998;9.116;2022-08-03T05:36:34;13.10;;;11.80;;
33327;SDS011;19692;52.998;9.116;2022-08-03T05:39:00;12.80;;;11.57;;
33327;SDS011;19692;52.998;9.116;2022-08-03T05:41:26;12.37;;;11.27;;
33327;SDS011;19692;52.998;9.116;2022-08-03T05:43:51;12.50;;;11.37;;
33327;SDS011;19692;52.998;9.116;2022-08-03T05:46:18;12.33;;;11.10;;
33327;SDS011;19692;52.998;9.116;2022-08-03T05:48:45;12.50;;;11.40;;
33327;SDS011;19692;52.998;9.116;2022-08-03T05:51:11;11.73;;;10.23;;
33327;SDS011;19692;52.998;9.116;2022-08-03T05:53:38;11.73;;;10.80;;
33327;SDS011;19692;52.998;9.116;2022-08-03T05:56:07;11.20;;;10.23;;
33327;SDS011;19692;52.998;9.116;2022-08-03T05:58:33;10.67;;;9.67;;
33327;SDS011;19692;52.998;9.116;2022-08-03T06:00:59;10.87;;;9.73;;
33327;SDS011;19692;52.998;9.116;2022-08-03T06:03:25;10.53;;;9.67;;
33327;SDS011;19692;52.998;9.116;2022-08-03T06:05:52;9.73;;;8.77;;
33327;SDS011;19692;52.998;9.116;2022-08-03T06:08:20;9.50;;;8.70;;
33327;SDS011;19692;52.998;9.116;2022-08-03T06:10:46;9.17;;;8.27;;
33327;SDS011;19692;52.998;9.116;2022-08-03T06:13:13;9.37;;;8.33;;
33327;SDS011;19692;52.998;9.116;2022-08-03T06:15:39;8.90;;;7.47;;
33327;SDS011;19692;52.998;9.116;2022-08-03T06:18:05;8.40;;;7.60;;
33327;SDS011;19692;52.998;9.116;2022-08-03T06:20:31;8.03;;;7.23;;
33327;SDS011;19692;52.998;9.116;2022-08-03T06:22:57;7.57;;;6.87;;
33327;SDS011;19692;52.998;9.116;2022-08-03T06:25:24;8.57;;;6.73;;
33327;SDS011;19692;52.998;9.116;2022-08-03T06:27:50;8.27;;;6.13;;
33327;SDS011;19692;52.998;9.116;2022-08-03T06:30:16;7.60;;;6.90;;
33327;SDS011;19692;52.998;9.116;2022-08-03T06:32:43;9.00;;;5.90;;
33327;SDS011;19692;52.998;9.116;2022-08-03T06:35:09;6.27;;;5.43;;
33327;SDS011;19692;52.998;9.116;2022-08-03T06:37:42;6.63;;;6.03;;
33327;SDS011;19692;52.998;9.116;2022-08-03T06:40:10;7.40;;;6.30;;
33327;SDS011;19692;52.998;9.116;2022-08-03T06:42:37;5.93;;;5.30;;
33327;SDS011;19692;52.998;9.116;2022-08-03T06:45:04;6.30;;;5.70;;
33327;SDS011;19692;52.998;9.116;2022-08-03T06:47:32;5.97;;;5.20;;
33327;SDS011;19692;52.998;9.116;2022-08-03T06:50:03;5.63;;;5.10;;
33327;SDS011;19692;52.998;9.116;2022-08-03T06:52:30;6.37;;;4.90;;
33327;SDS011;19692;52.998;9.116;2022-08-03T06:54:56;7.40;;;4.90;;
33327;SDS011;19692;52.998;9.116;2022-08-03T06:57:22;5.23;;;4.80;;
33327;SDS011;19692;52.998;9.116;2022-08-03T06:59:48;6.67;;;4.60;;
33327;SDS011;19692;52.998;9.116;2022-08-03T07:02:14;5.07;;;4.67;;
33327;SDS011;19692;52.998;9.116;2022-08-03T07:04:40;5.53;;;4.23;;
33327;SDS011;19692;52.998;9.116;2022-08-03T07:07:05;5.07;;;4.57;;
33327;SDS011;19692;52.998;9.116;2022-08-03T07:09:31;4.93;;;4.33;;
33327;SDS011;19692;52.998;9.116;2022-08-03T07:11:57;4.60;;;4.20;;
33327;SDS011;19692;52.998;9.116;2022-08-03T07:14:23;6.80;;;4.60;;
33327;SDS011;19692;52.998;9.116;2022-08-03T07:16:49;7.03;;;4.43;;
33327;SDS011;19692;52.998;9.116;2022-08-03T07:19:14;4.97;;;4.57;;
33327;SDS011;19692;52.998;9.116;2022-08-03T07:21:40;5.87;;;4.37;;
33327;SDS011;19692;52.998;9.116;2022-08-03T07:24:06;4.43;;;4.03;;
33327;SDS011;19692;52.998;9.116;2022-08-03T07:26:32;5.67;;;4.53;;
33327;SDS011;19692;52.998;9.116;2022-08-03T07:28:57;6.57;;;4.37;;
33327;SDS011;19692;52.998;9.116;2022-08-03T07:31:25;7.33;;;5.93;;
33327;SDS011;19692;52.998;9.116;2022-08-03T07:33:51;5.33;;;4.80;;
33327;SDS011;19692;52.998;9.116;2022-08-03T07:36:17;7.50;;;4.50;;
33327;SDS011;19692;52.998;9.116;2022-08-03T07:38:43;6.70;;;4.73;;
33327;SDS011;19692;52.998;9.116;2022-08-03T07:41:09;5.83;;;4.60;;
33327;SDS011;19692;52.998;9.116;2022-08-03T07:43:34;7.40;;;4.73;;
33327;SDS011;19692;52.998;9.116;2022-08-03T07:46:00;7.20;;;4.60;;
33327;SDS011;19692;52.998;9.116;2022-08-03T07:48:26;4.70;;;4.17;;
33327;SDS011;19692;52.998;9.116;2022-08-03T07:50:51;4.10;;;3.70;;
33327;SDS011;19692;52.998;9.116;2022-08-03T07:53:17;6.13;;;3.87;;
33327;SDS011;19692;52.998;9.116;2022-08-03T07:55:43;4.30;;;3.43;;
33327;SDS011;19692;52.998;9.116;2022-08-03T07:58:09;7.50;;;3.73;;
33327;SDS011;19692;52.998;9.116;2022-08-03T08:00:40;7.03;;;3.87;;
33327;SDS011;19692;52.998;9.116;2022-08-03T08:03:06;7.03;;;3.63;;
33327;SDS011;19692;52.998;9.116;2022-08-03T08:05:33;8.57;;;3.90;;
33327;SDS011;19692;52.998;9.116;2022-08-03T08:07:59;5.00;;;3.97;;
33327;SDS011;19692;52.998;9.116;2022-08-03T08:10:26;7.90;;;3.77;;
33327;SDS011;19692;52.998;9.116;2022-08-03T08:12:52;6.37;;;3.43;;
33327;SDS011;19692;52.998;9.116;2022-08-03T08:15:19;5.70;;;3.80;;
33327;SDS011;19692;52.998;9.116;2022-08-03T08:17:46;4.60;;;4.20;;
33327;SDS011;19692;52.998;9.116;2022-08-03T08:20:17;5.40;;;3.47;;
33327;SDS011;19692;52.998;9.116;2022-08-03T08:22:45;4.67;;;3.17;;
33327;SDS011;19692;52.998;9.116;2022-08-03T08:25:11;3.93;;;2.93;;
33327;SDS011;19692;52.998;9.116;2022-08-03T08:27:40;4.13;;;3.00;;
33327;SDS011;19692;52.998;9.116;2022-08-03T08:30:08;5.53;;;3.30;;
33327;SDS011;19692;52.998;9.116;2022-08-03T08:32:34;5.57;;;3.30;;
33327;SDS011;19692;52.998;9.116;2022-08-03T08:35:01;3.87;;;3.10;;
33327;SDS011;19692;52.998;9.116;2022-08-03T08:37:28;4.50;;;3.00;;
33327;SDS011;19692;52.998;9.116;2022-08-03T08:39:54;4.20;;;2.97;;
33327;SDS011;19692;52.998;9.116;2022-08-03T08:42:20;5.13;;;2.80;;
33327;SDS011;19692;52.998;9.116;2022-08-03T08:44:46;5.97;;;3.13;;
33327;SDS011;19692;52.998;9.116;2022-08-03T08:47:13;3.17;;;2.87;;
33327;SDS011;19692;52.998;9.116;2022-08-03T08:49:39;5.03;;;2.97;;
33327;SDS011;19692;52.998;9.116;2022-08-03T08:52:09;6.00;;;2.97;;
33327;SDS011;19692;52.998;9.116;2022-08-03T08:54:36;5.40;;;3.13;;
33327;SDS011;19692;52.998;9.116;2022-08-03T08:57:05;6.13;;;2.77;;
33327;SDS011;19692;52.998;9.116;2022-08-03T08:59:32;5.33;;;2.87;;
33327;SDS011;19692;52.998;9.116;2022-08-03T09:01:58;5.00;;;2.70;;
33327;SDS011;19692;52.998;9.116;2022-08-03T09:04:25;4.97;;;2.80;;
33327;SDS011;19692;52.998;9.116;2022-08-03T09:06:54;4.50;;;2.67;;
33327;SDS011;19692;52.998;9.116;2022-08-03T09:09:20;5.10;;;2.90;;
33327;SDS011;19692;52.998;9.116;2022-08-03T09:11:46;5.60;;;2.67;;
33327;SDS011;19692;52.998;9.116;2022-08-03T09:14:13;6.23;;;3.00;;
33327;SDS011;19692;52.998;9.116;2022-08-03T09:16:54;3.87;;;2.57;;
33327;SDS011;19692;52.998;9.116;2022-08-03T09:19:26;4.97;;;2.70;;
33327;SDS011;19692;52.998;9.116;2022-08-03T09:24:54;4.70;;;2.67;;
33327;SDS011;19692;52.998;9.116;2022-08-03T09:27:21;5.50;;;3.10;;
33327;SDS011;19692;52.998;9.116;2022-08-03T09:29:48;4.37;;;2.90;;
33327;SDS011;19692;52.998;9.116;2022-08-03T09:32:18;5.53;;;2.97;;
33327;SDS011;19692;52.998;9.116;2022-08-03T09:34:48;4.87;;;3.00;;
33327;SDS011;19692;52.998;9.116;2022-08-03T09:37:18;4.10;;;2.73;;
33327;SDS011;19692;52.998;9.116;2022-08-03T09:39:45;6.10;;;2.97;;
33327;SDS011;19692;52.998;9.116;2022-08-03T09:42:12;4.43;;;2.90;;
33327;SDS011;19692;52.998;9.116;2022-08-03T09:44:45;5.23;;;3.00;;
33327;SDS011;19692;52.998;9.116;2022-08-03T09:47:16;4.17;;;3.00;;
33327;SDS011;19692;52.998;9.116;2022-08-03T09:50:00;3.90;;;3.00;;
33327;SDS011;19692;52.998;9.116;2022-08-03T09:54:59;5.50;;;2.87;;
33327;SDS011;19692;52.998;9.116;2022-08-03T09:57:27;7.77;;;2.80;;
33327;SDS011;19692;52.998;9.116;2022-08-03T10:00:04;5.53;;;2.70;;
33327;SDS011;19692;52.998;9.116;2022-08-03T10:02:39;6.03;;;3.23;;
33327;SDS011;19692;52.998;9.116;2022-08-03T10:05:07;3.30;;;2.37;;
33327;SDS011;19692;52.998;9.116;2022-08-03T10:07:45;4.87;;;2.63;;
33327;SDS011;19692;52.998;9.116;2022-08-03T10:10:14;3.23;;;2.80;;
33327;SDS011;19692;52.998;9.116;2022-08-03T10:12:42;4.27;;;3.10;;
33327;SDS011;19692;52.998;9.116;2022-08-03T10:15:09;6.87;;;3.20;;
33327;SDS011;19692;52.998;9.116;2022-08-03T10:17:35;7.03;;;3.10;;
33327;SDS011;19692;52.998;9.116;2022-08-03T10:20:05;5.97;;;3.20;;
33327;SDS011;19692;52.998;9.116;2022-08-03T10:22:33;6.00;;;3.20;;
33327;SDS011;19692;52.998;9.116;2022-08-03T10:25:02;6.47;;;3.60;;
33327;SDS011;19692;52.998;9.116;2022-08-03T10:27:36;4.50;;;2.60;;
33327;SDS011;19692;52.998;9.116;2022-08-03T10:30:07;7.10;;;4.07;;
33327;SDS011;19692;52.998;9.116;2022-08-03T10:35:17;6.07;;;3.63;;
33327;SDS011;19692;52.998;9.116;2022-08-03T10:37:51;6.43;;;3.10;;
33327;SDS011;19692;52.998;9.116;2022-08-03T10:40:23;8.13;;;4.60;;
33327;SDS011;19692;52.998;9.116;2022-08-03T10:42:52;6.53;;;2.97;;
33327;SDS011;19692;52.998;9.116;2022-08-03T10:45:25;6.00;;;3.70;;
33327;SDS011;19692;52.998;9.116;2022-08-03T10:47:52;4.53;;;2.83;;
33327;SDS011;19692;52.998;9.116;2022-08-03T10:50:21;5.00;;;2.97;;
33327;SDS011;19692;52.998;9.116;2022-08-03T10:52:55;5.10;;;2.87;;
33327;SDS011;19692;52.998;9.116;2022-08-03T10:55:33;4.93;;;3.10;;
33327;SDS011;19692;52.998;9.116;2022-08-03T11:01:01;4.30;;;2.80;;
33327;SDS011;19692;52.998;9.116;2022-08-03T11:03:32;5.43;;;3.27;;
33327;SDS011;19692;52.998;9.116;2022-08-03T11:08:45;5.23;;;3.03;;
33327;SDS011;19692;52.998;9.116;2022-08-03T11:13:58;5.10;;;2.80;;
33327;SDS011;19692;52.998;9.116;2022-08-03T11:16:40;5.20;;;3.00;;
33327;SDS011;19692;52.998;9.116;2022-08-03T11:19:09;5.17;;;3.07;;
33327;SDS011;19692;52.998;9.116;2022-08-03T11:35:15;6.30;;;2.63;;
33327;SDS011;19692;52.998;9.116;2022-08-03T11:43:01;5.47;;;2.90;;
33327;SDS011;19692;52.998;9.116;2022-08-03T11:45:31;7.63;;;3.40;;
33327;SDS011;19692;52.998;9.116;2022-08-03T11:48:01;3.90;;;3.07;;
33327;SDS011;19692;52.998;9.116;2022-08-03T11:50:39;5.10;;;3.07;;
33327;SDS011;19692;52.998;9.116;2022-08-03T11:53:06;5.70;;;2.93;;
33327;SDS011;19692;52.998;9.116;2022-08-03T11:55:38;4.03;;;3.00;;
33327;SDS011;19692;52.998;9.116;2022-08-03T11:58:05;3.77;;;2.77;;
33327;SDS011;19692;52.998;9.116;2022-08-03T12:00:32;4.73;;;3.00;;
33327;SDS011;19692;52.998;9.116;2022-08-03T12:02:59;4.23;;;2.90;;
33327;SDS011;19692;52.998;9.116;2022-08-03T12:05:38;6.77;;;2.60;;
33327;SDS011;19692;52.998;9.116;2022-08-03T12:08:15;6.43;;;2.93;;
33327;SDS011;19692;52.998;9.116;2022-08-03T12:10:55;4.67;;;2.87;;
33327;SDS011;19692;52.998;9.116;2022-08-03T12:13:22;5.17;;;2.83;;
33327;SDS011;19692;52.998;9.116;2022-08-03T12:15:51;4.27;;;2.77;;
33327;SDS011;19692;52.998;9.116;2022-08-03T12:18:19;5.00;;;2.77;;
33327;SDS011;19692;52.998;9.116;2022-08-03T12:20:47;9.23;;;2.80;;
33327;SDS011;19692;52.998;9.116;2022-08-03T12:23:15;6.87;;;3.00;;
33327;SDS011;19692;52.998;9.116;2022-08-03T12:25:42;4.57;;;2.70;;
33327;SDS011;19692;52.998;9.116;2022-08-03T12:30:43;4.50;;;2.93;;
33327;SDS011;19692;52.998;9.116;2022-08-03T12:35:41;6.23;;;3.20;;
33327;SDS011;19692;52.998;9.116;2022-08-03T12:38:07;6.50;;;3.00;;
33327;SDS011;19692;52.998;9.116;2022-08-03T12:40:35;6.50;;;3.27;;
33327;SDS011;19692;52.998;9.116;2022-08-03T12:43:08;8.80;;;3.40;;
33327;SDS011;19692;52.998;9.116;2022-08-03T12:45:36;5.67;;;3.00;;
33327;SDS011;19692;52.998;9.116;2022-08-03T12:48:02;4.63;;;3.03;;
33327;SDS011;19692;52.998;9.116;2022-08-03T12:50:35;4.90;;;2.90;;
33327;SDS011;19692;52.998;9.116;2022-08-03T12:53:03;8.40;;;3.00;;
33327;SDS011;19692;52.998;9.116;2022-08-03T12:55:31;9.13;;;3.00;;
33327;SDS011;19692;52.998;9.116;2022-08-03T12:57:59;7.97;;;4.20;;
33327;SDS011;19692;52.998;9.116;2022-08-03T13:00:25;5.67;;;3.10;;
33327;SDS011;19692;52.998;9.116;2022-08-03T13:02:58;7.70;;;3.40;;
33327;SDS011;19692;52.998;9.116;2022-08-03T13:05:31;6.00;;;2.97;;
33327;SDS011;19692;52.998;9.116;2022-08-03T13:08:16;5.97;;;5.00;;
33327;SDS011;19692;52.998;9.116;2022-08-03T13:10:46;7.57;;;3.60;;
33327;SDS011;19692;52.998;9.116;2022-08-03T13:13:13;8.40;;;4.67;;
33327;SDS011;19692;52.998;9.116;2022-08-03T13:15:39;8.77;;;3.30;;
33327;SDS011;19692;52.998;9.116;2022-08-03T13:18:04;5.27;;;3.37;;
33327;SDS011;19692;52.998;9.116;2022-08-03T13:20:30;5.53;;;2.93;;
33327;SDS011;19692;52.998;9.116;2022-08-03T13:22:56;5.50;;;2.97;;
33327;SDS011;19692;52.998;9.116;2022-08-03T13:25:22;5.53;;;3.07;;
33327;SDS011;19692;52.998;9.116;2022-08-03T13:27:48;7.20;;;3.60;;
33327;SDS011;19692;52.998;9.116;2022-08-03T13:30:14;6.33;;;2.93;;
33327;SDS011;19692;52.998;9.116;2022-08-03T13:32:40;4.63;;;3.10;;
33327;SDS011;19692;52.998;9.116;2022-08-03T13:35:07;5.13;;;3.07;;
33327;SDS011;19692;52.998;9.116;2022-08-03T13:37:34;10.80;;;3.77;;
33327;SDS011;19692;52.998;9.116;2022-08-03T13:40:00;8.20;;;3.53;;
33327;SDS011;19692;52.998;9.116;2022-08-03T13:42:28;7.53;;;3.80;;
33327;SDS011;19692;52.998;9.116;2022-08-03T13:44:59;8.27;;;3.90;;
33327;SDS011;19692;52.998;9.116;2022-08-03T13:47:25;5.23;;;3.20;;
33327;SDS011;19692;52.998;9.116;2022-08-03T13:55:12;6.33;;;3.33;;
33327;SDS011;19692;52.998;9.116;2022-08-03T13:57:37;6.03;;;3.07;;
33327;SDS011;19692;52.998;9.116;2022-08-03T14:00:04;6.27;;;3.23;;
33327;SDS011;19692;52.998;9.116;2022-08-03T14:02:31;7.77;;;3.17;;
33327;SDS011;19692;52.998;9.116;2022-08-03T14:04:57;6.30;;;3.57;;
33327;SDS011;19692;52.998;9.116;2022-08-03T14:07:23;9.20;;;3.20;;
33327;SDS011;19692;52.998;9.116;2022-08-03T14:09:49;9.00;;;4.00;;
33327;SDS011;19692;52.998;9.116;2022-08-03T14:12:14;6.37;;;3.07;;
33327;SDS011;19692;52.998;9.116;2022-08-03T14:14:40;5.97;;;3.27;;
33327;SDS011;19692;52.998;9.116;2022-08-03T14:17:06;6.23;;;3.23;;
33327;SDS011;19692;52.998;9.116;2022-08-03T14:19:32;9.27;;;3.43;;
33327;SDS011;19692;52.998;9.116;2022-08-03T14:21:58;6.23;;;3.40;;
33327;SDS011;19692;52.998;9.116;2022-08-03T14:24:23;8.93;;;3.57;;
33327;SDS011;19692;52.998;9.116;2022-08-03T14:26:49;6.60;;;2.97;;
33327;SDS011;19692;52.998;9.116;2022-08-03T14:29:15;6.10;;;3.30;;
33327;SDS011;19692;52.998;9.116;2022-08-03T14:31:41;4.63;;;2.80;;
33327;SDS011;19692;52.998;9.116;2022-08-03T14:34:06;4.63;;;3.30;;
33327;SDS011;19692;52.998;9.116;2022-08-03T14:36:32;5.40;;;3.23;;
33327;SDS011;19692;52.998;9.116;2022-08-03T14:38:58;5.33;;;3.00;;
33327;SDS011;19692;52.998;9.116;2022-08-03T14:41:24;9.00;;;3.30;;
33327;SDS011;19692;52.998;9.116;2022-08-03T14:43:49;6.70;;;3.60;;
33327;SDS011;19692;52.998;9.116;2022-08-03T14:46:15;8.57;;;3.20;;
33327;SDS011;19692;52.998;9.116;2022-08-03T14:48:41;6.43;;;3.00;;
33327;SDS011;19692;52.998;9.116;2022-08-03T14:51:07;7.80;;;3.53;;
33327;SDS011;19692;52.998;9.116;2022-08-03T14:53:33;7.33;;;3.50;;
33327;SDS011;19692;52.998;9.116;2022-08-03T14:55:59;5.63;;;4.13;;
33327;SDS011;19692;52.998;9.116;2022-08-03T14:58:25;6.03;;;3.93;;
33327;SDS011;19692;52.998;9.116;2022-08-03T15:00:51;5.70;;;4.03;;
33327;SDS011;19692;52.998;9.116;2022-08-03T15:03:19;6.40;;;3.23;;
33327;SDS011;19692;52.998;9.116;2022-08-03T15:05:48;4.90;;;3.03;;
33327;SDS011;19692;52.998;9.116;2022-08-03T15:08:19;10.77;;;3.10;;
33327;SDS011;19692;52.998;9.116;2022-08-03T15:10:46;5.77;;;2.80;;
33327;SDS011;19692;52.998;9.116;2022-08-03T15:13:13;8.40;;;3.70;;
33327;SDS011;19692;52.998;9.116;2022-08-03T15:15:39;8.47;;;3.27;;
33327;SDS011;19692;52.998;9.116;2022-08-03T15:18:05;6.00;;;3.30;;
33327;SDS011;19692;52.998;9.116;2022-08-03T15:20:32;7.10;;;3.27;;
33327;SDS011;19692;52.998;9.116;2022-08-03T15:22:58;5.27;;;3.10;;
33327;SDS011;19692;52.998;9.116;2022-08-03T15:25:24;5.20;;;2.90;;
33327;SDS011;19692;52.998;9.116;2022-08-03T15:27:50;7.87;;;3.23;;
33327;SDS011;19692;52.998;9.116;2022-08-03T15:30:17;7.80;;;3.43;;
33327;SDS011;19692;52.998;9.116;2022-08-03T15:32:42;9.00;;;2.90;;
33327;SDS011;19692;52.998;9.116;2022-08-03T15:35:08;5.60;;;3.20;;
33327;SDS011;19692;52.998;9.116;2022-08-03T15:37:37;6.50;;;3.37;;
33327;SDS011;19692;52.998;9.116;2022-08-03T15:40:02;9.30;;;3.70;;
33327;SDS011;19692;52.998;9.116;2022-08-03T15:42:29;5.93;;;2.90;;
33327;SDS011;19692;52.998;9.116;2022-08-03T15:44:57;6.03;;;2.90;;